LXN weather

Jim Kelly Field
Lexington, Nebraska, United States

Public forecast

Using degrees Fahrenheit for public forecast. Weather courtesy of forecast.io.

Current aviation weather report (METAR) for Jim Kelly Field

Retrieved 2020/02/19 06:35 UTC (9 minutes ago):

KLXN 190635Z AUTO 05011KT 7SM OVC004 M06/M06 A3040 RMK AO2 T10561065

Closest aviation forecast (TAF) to Jim Kelly Field

Closest forecast is Kearney Regional Airport, 35.3 nm (65.3 km) E. Retrieved 2020/02/19 06:22 UTC (22 minutes ago):

TAF KEAR 190520Z 1906/2006 02011KT P6SM SCT005 SCT200 FM190900 03008KT P6SM SCT005 BKN012 TEMPO 1909/1913 BKN005 FM191300 04009KT P6SM OVC007 FM191800 04014KT 3SM -SN OVC006 FM200400 03014KT P6SM SCT012 OVC025